createdAt,value
2018-10-03T00:00:34.961Z,12.07
2018-10-03T00:03:04.814Z,8.43
2018-10-03T00:05:35.638Z,7.72
2018-10-03T00:08:10.502Z,10.10
2018-10-03T00:10:40.470Z,9.15
2018-10-03T00:13:10.374Z,15.70
2018-10-03T00:15:40.250Z,8.08
2018-10-03T00:18:15.976Z,9.23
2018-10-03T00:20:49.446Z,7.58
2018-10-03T00:23:19.278Z,10.85
2018-10-03T00:25:49.138Z,9.93
2018-10-03T00:28:19.030Z,5.97
2018-10-03T00:30:58.714Z,6.85
2018-10-03T00:33:29.499Z,7.47
2018-10-03T00:35:59.358Z,6.92
2018-10-03T00:38:32.938Z,10.32
2018-10-03T00:41:03.126Z,7.90
2018-10-03T00:43:32.982Z,7.53
2018-10-03T00:46:02.898Z,8.33
2018-10-03T00:48:32.802Z,7.33
2018-10-03T00:51:03.850Z,5.30
2018-10-03T00:53:33.750Z,6.40
2018-10-03T00:56:03.702Z,6.70
2018-10-03T00:58:38.169Z,7.97
2018-10-03T01:01:08.282Z,5.40
2018-10-03T01:03:50.722Z,8.00
2018-10-03T01:06:26.362Z,6.12
2018-10-03T01:08:56.234Z,4.85
2018-10-03T01:11:26.059Z,6.25
2018-10-03T01:13:55.862Z,5.00
2018-10-03T01:16:41.730Z,4.97
2018-10-03T01:19:13.530Z,4.37
2018-10-03T01:21:44.373Z,4.92
2018-10-03T01:24:17.325Z,7.53
2018-10-03T01:26:50.426Z,9.63
2018-10-03T01:29:21.255Z,5.72
2018-10-03T01:31:52.098Z,5.40
2018-10-03T01:34:26.000Z,5.53
2018-10-03T01:37:02.186Z,6.85
2018-10-03T01:39:32.101Z,5.15
2018-10-03T01:42:02.169Z,6.03
2018-10-03T01:44:39.466Z,3.83
2018-10-03T01:47:17.149Z,11.78
2018-10-03T01:49:50.537Z,7.42
2018-10-03T01:52:22.373Z,7.45
2018-10-03T01:54:54.206Z,9.90
2018-10-03T01:57:25.073Z,9.88
2018-10-03T02:00:03.169Z,4.87
2018-10-03T02:02:59.510Z,7.53
2018-10-03T02:05:35.257Z,9.98
2018-10-03T02:08:16.157Z,6.12
2018-10-03T02:10:52.269Z,9.18
2018-10-03T02:13:27.582Z,4.25
2018-10-03T02:15:59.453Z,4.00
2018-10-03T02:18:34.466Z,8.15
2018-10-03T02:21:11.923Z,4.58
2018-10-03T02:23:51.628Z,9.28
2018-10-03T02:26:23.501Z,8.83
2018-10-03T02:28:53.422Z,6.80
2018-10-03T02:31:25.249Z,8.30
2018-10-03T02:33:55.069Z,10.55
2018-10-03T02:36:26.893Z,6.45
2018-10-03T02:38:57.769Z,6.35
2018-10-03T02:41:28.630Z,6.85
2018-10-03T02:43:59.403Z,6.17
2018-10-03T02:46:35.902Z,11.85
2018-10-03T02:49:05.782Z,9.18
2018-10-03T02:51:42.654Z,8.85
2018-10-03T02:54:35.386Z,7.45
2018-10-03T02:57:08.594Z,9.30
2018-10-03T02:59:38.455Z,10.68
2018-10-03T03:02:11.499Z,9.13
2018-10-03T03:04:43.370Z,8.55
2018-10-03T03:07:13.177Z,6.90
2018-10-03T03:09:46.206Z,10.08
2018-10-03T03:12:16.106Z,5.25
2018-10-03T03:14:50.738Z,7.35
2018-10-03T03:17:21.539Z,7.30
2018-10-03T03:19:52.374Z,10.38
2018-10-03T03:22:33.886Z,7.78
2018-10-03T03:25:03.673Z,11.12
2018-10-03T03:27:38.316Z,5.75
2018-10-03T03:30:11.516Z,8.80
2018-10-03T03:32:42.358Z,8.53
2018-10-03T03:35:13.201Z,9.95
2018-10-03T03:37:43.998Z,6.17
2018-10-03T03:40:14.902Z,5.55
2018-10-03T03:43:01.201Z,11.35
2018-10-03T03:45:34.072Z,8.40
2018-10-03T03:48:04.878Z,8.23
2018-10-03T03:50:39.529Z,6.03
2018-10-03T03:53:16.385Z,17.10
2018-10-03T03:56:04.445Z,8.23
2018-10-03T03:58:36.250Z,7.03
2018-10-03T04:01:19.877Z,5.90
2018-10-03T04:03:52.935Z,7.12
2018-10-03T04:06:41.179Z,7.85
2018-10-03T04:09:15.770Z,8.98
2018-10-03T04:11:59.453Z,6.03
2018-10-03T04:14:33.206Z,7.22
2018-10-03T04:17:05.022Z,5.80
2018-10-03T04:19:34.861Z,6.80
2018-10-03T04:22:27.662Z,7.28
2018-10-03T04:24:57.658Z,8.10
2018-10-03T04:27:39.658Z,8.10
2018-10-03T04:30:28.850Z,6.80
2018-10-03T04:33:04.380Z,8.38
2018-10-03T04:35:43.907Z,9.58
2018-10-03T04:38:14.617Z,7.30
2018-10-03T04:40:46.464Z,6.95
2018-10-03T04:43:18.294Z,7.37
2018-10-03T04:45:50.065Z,7.58
2018-10-03T04:48:33.149Z,7.75
2018-10-03T04:51:03.030Z,5.83
2018-10-03T04:53:32.817Z,7.62
2018-10-03T04:56:04.698Z,8.90
2018-10-03T04:58:34.485Z,7.35
2018-10-03T05:01:08.069Z,9.63
2018-10-03T05:03:37.917Z,7.30
2018-10-03T05:06:09.045Z,8.65
2018-10-03T05:08:52.209Z,9.13
2018-10-03T05:11:22.094Z,7.03
2018-10-03T05:13:51.867Z,6.42
2018-10-03T05:16:27.801Z,7.65
2018-10-03T05:19:02.965Z,8.40
2018-10-03T05:21:32.781Z,7.80
2018-10-03T05:24:03.609Z,9.60
2018-10-03T05:26:43.189Z,8.53
2018-10-03T05:29:16.585Z,8.08
2018-10-03T05:31:47.441Z,8.30
2018-10-03T05:34:18.306Z,7.22
2018-10-03T05:36:49.253Z,7.33
2018-10-03T05:39:21.128Z,7.05
2018-10-03T05:41:53.029Z,12.05
2018-10-03T05:44:24.878Z,7.58
2018-10-03T05:47:01.490Z,7.28
2018-10-03T05:49:42.137Z,8.43
2018-10-03T05:52:33.065Z,9.70
2018-10-03T05:55:02.934Z,7.78
2018-10-03T05:57:38.894Z,6.87
2018-10-03T06:00:08.682Z,9.73
2018-10-03T06:02:38.685Z,7.50
2018-10-03T06:05:19.733Z,9.60
2018-10-03T06:07:53.925Z,7.90
2018-10-03T06:10:23.860Z,10.03
2018-10-03T06:13:01.931Z,7.12
2018-10-03T06:15:36.562Z,8.75
2018-10-03T06:18:07.377Z,8.25
2018-10-03T06:20:38.245Z,6.03
2018-10-03T06:23:08.310Z,7.83
2018-10-03T06:25:39.181Z,5.92
2018-10-03T06:28:13.395Z,8.90
2018-10-03T06:30:44.257Z,7.30
2018-10-03T06:33:16.091Z,6.33
2018-10-03T06:35:45.949Z,7.15
2018-10-03T06:38:15.849Z,7.50
2018-10-03T06:40:46.657Z,7.85
2018-10-03T06:43:20.649Z,6.25
2018-10-03T06:46:02.010Z,6.37
2018-10-03T06:48:35.425Z,5.17
2018-10-03T06:51:05.293Z,5.85
2018-10-03T06:53:36.229Z,6.62
2018-10-03T06:56:06.089Z,4.95
2018-10-03T06:58:37.939Z,12.60
2018-10-03T07:01:10.861Z,5.20
2018-10-03T07:03:40.725Z,6.35
2018-10-03T07:06:12.637Z,7.72
2018-10-03T07:08:48.448Z,6.22
2018-10-03T07:11:21.313Z,5.67
2018-10-03T07:13:58.645Z,5.90
2018-10-03T07:16:29.457Z,5.15
2018-10-03T07:19:03.253Z,6.03
2018-10-03T07:21:33.085Z,5.95
2018-10-03T07:24:03.920Z,6.35
2018-10-03T07:26:33.713Z,8.85
2018-10-03T07:29:03.545Z,5.67
2018-10-03T07:31:34.402Z,8.60
2018-10-03T07:34:15.053Z,9.75
2018-10-03T07:36:45.857Z,6.22
2018-10-03T07:39:16.769Z,7.58
2018-10-03T07:41:48.580Z,6.75
2018-10-03T07:44:20.465Z,7.50
2018-10-03T07:46:52.569Z,9.53
2018-10-03T07:49:26.421Z,11.63
2018-10-03T07:51:57.236Z,8.15
2018-10-03T07:54:27.036Z,8.03
2018-10-03T07:56:58.911Z,6.70
2018-10-03T07:59:31.781Z,8.78
2018-10-03T08:02:02.969Z,13.08
2018-10-03T08:04:47.433Z,8.23
2018-10-03T08:07:17.285Z,6.90
2018-10-03T08:09:48.212Z,9.45
2018-10-03T08:12:20.012Z,11.48
2018-10-03T08:14:55.181Z,8.58
2018-10-03T08:17:25.222Z,9.55
2018-10-03T08:19:57.029Z,10.05
2018-10-03T08:22:26.861Z,14.28
2018-10-03T08:24:57.694Z,10.50
2018-10-03T08:27:32.337Z,11.15
2018-10-03T08:30:03.276Z,11.00
2018-10-03T08:32:40.766Z,14.30
2018-10-03T08:35:11.537Z,12.28
2018-10-03T08:37:41.433Z,10.58
2018-10-03T08:40:13.426Z,12.85
2018-10-03T08:42:49.665Z,10.50
2018-10-03T08:45:20.538Z,11.63
2018-10-03T08:47:54.246Z,10.88
2018-10-03T08:50:29.637Z,9.97
2018-10-03T08:53:01.942Z,8.65
2018-10-03T08:55:32.405Z,10.10
2018-10-03T08:58:03.267Z,9.90
2018-10-03T09:00:33.031Z,15.17
2018-10-03T09:03:02.814Z,11.30
2018-10-03T09:05:32.645Z,9.87
2018-10-03T09:08:13.784Z,9.90
2018-10-03T09:10:45.861Z,10.50
2018-10-03T09:13:18.981Z,12.20
2018-10-03T09:15:55.353Z,10.37
2018-10-03T09:18:28.923Z,9.30
2018-10-03T09:21:01.813Z,10.80
2018-10-03T09:23:35.629Z,9.63
2018-10-03T09:26:06.492Z,10.47
2018-10-03T09:28:36.434Z,7.97
2018-10-03T09:31:07.341Z,9.37
2018-10-03T09:33:51.517Z,7.40
2018-10-03T09:36:22.625Z,10.40
2018-10-03T09:39:00.729Z,6.30
2018-10-03T09:41:42.069Z,6.93
2018-10-03T09:44:15.193Z,5.57
2018-10-03T09:46:50.317Z,5.83
2018-10-03T09:49:22.185Z,6.20
2018-10-03T09:51:53.013Z,5.97
2018-10-03T09:54:23.821Z,14.97
2018-10-03T09:56:57.627Z,5.73
2018-10-03T09:59:29.485Z,5.77
2018-10-03T10:02:07.557Z,5.57
2018-10-03T10:04:44.457Z,6.80
2018-10-03T10:07:15.309Z,6.43
2018-10-03T10:09:45.173Z,5.87
2018-10-03T10:12:17.596Z,6.27
2018-10-03T10:14:48.485Z,6.60
2018-10-03T10:17:26.205Z,9.17
2018-10-03T10:19:58.045Z,8.13
2018-10-03T10:22:27.949Z,5.90
2018-10-03T10:24:59.164Z,11.20
2018-10-03T10:27:34.852Z,7.77
2018-10-03T10:30:09.244Z,5.13
2018-10-03T10:32:40.161Z,4.80
2018-10-03T10:35:15.299Z,4.30
2018-10-03T10:37:45.151Z,7.53
2018-10-03T10:40:15.105Z,4.63
2018-10-03T10:42:48.637Z,3.63
2018-10-03T10:45:26.045Z,5.87
2018-10-03T10:47:59.625Z,4.30
2018-10-03T10:50:29.529Z,6.97
2018-10-03T10:52:59.216Z,4.63
2018-10-03T10:55:40.841Z,3.13
2018-10-03T10:58:17.709Z,3.40
2018-10-03T11:00:52.237Z,4.40
2018-10-03T11:03:28.520Z,4.13
2018-10-03T11:06:00.354Z,4.37
2018-10-03T11:08:30.160Z,4.40
2018-10-03T11:11:00.001Z,5.83
2018-10-03T11:13:29.775Z,4.27
2018-10-03T11:16:01.633Z,5.27
2018-10-03T11:18:33.464Z,5.20
2018-10-03T11:21:08.133Z,2.80
2018-10-03T11:23:42.277Z,4.03
2018-10-03T11:26:11.937Z,3.83
2018-10-03T11:28:43.825Z,7.13
2018-10-03T11:31:16.905Z,4.60
2018-10-03T11:33:48.741Z,5.37
2018-10-03T11:36:20.648Z,4.70
2018-10-03T11:38:50.569Z,6.53
2018-10-03T11:41:20.400Z,6.00
2018-10-03T11:43:53.344Z,7.50
2018-10-03T11:46:26.297Z,10.83
2018-10-03T11:48:57.124Z,5.57
2018-10-03T11:51:27.949Z,4.47
2018-10-03T11:54:01.250Z,6.13
2018-10-03T11:56:32.129Z,5.77
2018-10-03T11:59:03.972Z,9.00
2018-10-03T12:01:52.240Z,7.67
2018-10-03T12:04:24.083Z,7.00
2018-10-03T12:06:54.961Z,6.97
2018-10-03T12:09:24.881Z,9.93
2018-10-03T12:11:55.645Z,7.47
2018-10-03T12:14:27.508Z,13.10
2018-10-03T12:16:58.372Z,8.97
2018-10-03T12:19:29.180Z,8.30
2018-10-03T12:22:00.073Z,5.93
2018-10-03T12:24:31.924Z,10.70
2018-10-03T12:27:06.280Z,14.10
2018-10-03T12:29:37.108Z,9.13
2018-10-03T12:32:10.148Z,9.80
2018-10-03T12:34:39.948Z,5.97
2018-10-03T12:37:10.765Z,6.10
2018-10-03T12:39:42.632Z,6.17
2018-10-03T12:42:14.464Z,11.40
2018-10-03T12:44:44.659Z,5.93
2018-10-03T12:47:15.492Z,8.07
2018-10-03T12:49:45.325Z,6.03
2018-10-03T12:52:17.199Z,5.43
2018-10-03T12:54:48.288Z,8.17
2018-10-03T12:57:18.076Z,10.20
2018-10-03T12:59:48.904Z,3.50
2018-10-03T13:02:18.734Z,3.03
2018-10-03T13:04:49.542Z,4.63
2018-10-03T13:07:23.657Z,6.40
2018-10-03T13:09:56.877Z,3.93
2018-10-03T13:12:31.028Z,4.63
2018-10-03T13:15:09.277Z,6.10
2018-10-03T13:17:40.016Z,4.70
2018-10-03T13:20:10.864Z,4.60
2018-10-03T13:22:46.162Z,6.20
2018-10-03T13:25:16.004Z,6.67
2018-10-03T13:27:51.736Z,5.43
2018-10-03T13:30:22.612Z,7.00
2018-10-03T13:32:55.440Z,6.47
2018-10-03T13:35:37.857Z,4.50
2018-10-03T13:38:13.880Z,9.63
2018-10-03T13:40:55.658Z,5.03
2018-10-03T13:43:27.432Z,7.73
2018-10-03T13:45:58.512Z,10.73
2018-10-03T13:48:30.429Z,3.30
2018-10-03T13:51:00.342Z,6.10
2018-10-03T13:53:31.165Z,9.37
2018-10-03T13:56:00.998Z,3.70
2018-10-03T13:58:37.145Z,10.10
2018-10-03T14:01:07.072Z,4.50
2018-10-03T14:03:37.887Z,8.70
2018-10-03T14:06:08.685Z,5.47
2018-10-03T14:08:38.509Z,6.57
2018-10-03T14:11:09.474Z,5.80
2018-10-03T14:13:39.281Z,4.73
2018-10-03T14:16:10.164Z,3.53
2018-10-03T14:18:40.060Z,3.87
2018-10-03T14:21:09.914Z,6.73
2018-10-03T14:23:41.789Z,3.80
2018-10-03T14:26:19.188Z,6.73
2018-10-03T14:28:51.017Z,4.53
2018-10-03T14:31:25.393Z,6.20
2018-10-03T14:33:57.236Z,7.70
2018-10-03T14:36:29.128Z,6.53
2018-10-03T14:39:00.077Z,5.50
2018-10-03T14:41:31.009Z,3.90
2018-10-03T14:44:04.333Z,9.30
2018-10-03T14:46:38.762Z,6.70
2018-10-03T14:49:10.525Z,4.67
2018-10-03T14:51:42.309Z,4.70
2018-10-03T14:54:12.241Z,5.13
2018-10-03T14:56:54.036Z,5.63
2018-10-03T14:59:27.613Z,8.77
2018-10-03T15:01:59.537Z,9.63
2018-10-03T15:04:32.460Z,9.00
2018-10-03T15:07:04.280Z,7.50
2018-10-03T15:09:37.201Z,5.90
2018-10-03T15:12:11.100Z,11.03
2018-10-03T15:14:41.893Z,10.90
2018-10-03T15:17:13.768Z,10.70
2018-10-03T15:19:46.880Z,12.50
2018-10-03T15:22:22.385Z,10.17
2018-10-03T15:24:53.257Z,11.70
2018-10-03T15:27:26.965Z,8.97
2018-10-03T15:29:57.896Z,13.60
2018-10-03T15:32:29.653Z,12.80
2018-10-03T15:34:59.453Z,8.07
2018-10-03T15:37:30.286Z,6.73
2018-10-03T15:40:00.075Z,8.63
2018-10-03T15:42:29.908Z,6.10
2018-10-03T15:44:59.757Z,11.50
2018-10-03T15:47:36.004Z,9.90
2018-10-03T15:50:06.577Z,8.70
2018-10-03T15:52:37.737Z,5.73
2018-10-03T15:55:11.389Z,13.57
2018-10-03T15:57:41.252Z,13.43
2018-10-03T16:00:12.169Z,12.20
2018-10-03T16:02:43.041Z,8.87
2018-10-03T16:05:13.897Z,19.90
2018-10-03T16:07:54.481Z,11.93
2018-10-03T16:10:25.343Z,10.97
2018-10-03T16:12:57.644Z,9.13
2018-10-03T16:15:29.529Z,11.43
2018-10-03T16:17:59.312Z,12.03
2018-10-03T16:20:36.217Z,13.50
2018-10-03T16:23:12.576Z,8.70
2018-10-03T16:25:45.864Z,14.83
2018-10-03T16:28:15.648Z,12.87
2018-10-03T16:30:45.477Z,13.63
2018-10-03T16:33:15.283Z,9.83
2018-10-03T16:35:47.146Z,10.20
2018-10-03T16:38:16.971Z,13.50
2018-10-03T16:40:50.409Z,12.23
2018-10-03T16:43:21.189Z,14.00
2018-10-03T16:45:56.879Z,12.13
2018-10-03T16:48:30.269Z,11.40
2018-10-03T16:51:01.165Z,10.63
2018-10-03T16:53:42.697Z,6.90
2018-10-03T16:56:12.694Z,11.33
2018-10-03T16:58:43.524Z,10.93
2018-10-03T17:01:13.321Z,15.90
2018-10-03T17:03:46.904Z,9.50
2018-10-03T17:06:19.924Z,14.03
2018-10-03T17:08:59.484Z,17.57
2018-10-03T17:11:29.580Z,17.60
2018-10-03T17:14:35.329Z,14.07
2018-10-03T17:17:06.356Z,10.53
2018-10-03T17:19:43.164Z,11.65
2018-10-03T17:22:13.089Z,9.53
2018-10-03T17:24:43.000Z,13.93
2018-10-03T17:27:37.531Z,16.30
2018-10-03T17:30:13.300Z,13.10
2018-10-03T17:32:48.604Z,17.25
2018-10-03T17:35:20.504Z,12.82
2018-10-03T17:37:57.008Z,10.25
2018-10-03T17:40:26.921Z,13.85
2018-10-03T17:42:58.648Z,9.83
2018-10-03T17:45:35.792Z,11.57
2018-10-03T17:48:05.928Z,9.60
2018-10-03T17:50:37.407Z,13.22
2018-10-03T17:53:12.072Z,16.23
2018-10-03T17:55:42.515Z,17.48
2018-10-03T17:58:17.300Z,11.10
2018-10-03T18:00:49.157Z,8.03
2018-10-03T18:03:24.260Z,12.45
2018-10-03T18:05:54.325Z,18.23
2018-10-03T18:08:24.184Z,18.45
2018-10-03T18:11:00.026Z,23.45
2018-10-03T18:13:31.911Z,16.27
2018-10-03T18:16:06.162Z,14.13
2018-10-03T18:18:37.956Z,15.28
2018-10-03T18:21:07.764Z,14.73
2018-10-03T18:23:37.544Z,22.82
2018-10-03T18:26:07.470Z,16.67
2018-10-03T18:28:37.440Z,16.95
2018-10-03T18:31:09.296Z,19.02
2018-10-03T18:33:43.656Z,17.32
2018-10-03T18:36:13.581Z,20.35
2018-10-03T18:38:45.400Z,25.35
2018-10-03T18:41:15.245Z,16.23
2018-10-03T18:43:46.052Z,21.62
2018-10-03T18:46:15.848Z,20.68
2018-10-03T18:48:57.369Z,26.68
2018-10-03T18:51:27.293Z,30.32
2018-10-03T18:53:57.157Z,23.27
2018-10-03T18:56:27.912Z,37.17
2018-10-03T18:58:57.748Z,30.97
2018-10-03T19:01:27.673Z,34.90
2018-10-03T19:03:57.568Z,30.43
2018-10-03T19:06:28.477Z,21.37
2018-10-03T19:08:59.257Z,22.65
2018-10-03T19:11:30.173Z,22.73
2018-10-03T19:14:04.820Z,22.58
2018-10-03T19:16:36.680Z,30.37
2018-10-03T19:19:06.384Z,25.92
2018-10-03T19:21:37.188Z,25.35
2018-10-03T19:24:10.612Z,23.60
2018-10-03T19:26:57.620Z,28.62
2018-10-03T19:29:29.500Z,19.65
2018-10-03T19:32:00.423Z,18.52
2018-10-03T19:34:30.372Z,26.82
2018-10-03T19:37:05.664Z,20.95
2018-10-03T19:39:35.531Z,22.67
2018-10-03T19:42:06.476Z,28.70
2018-10-03T19:44:36.432Z,22.67
2018-10-03T19:47:09.788Z,19.70
2018-10-03T19:49:40.868Z,29.05
2018-10-03T19:52:11.692Z,17.40
2018-10-03T19:54:43.584Z,21.45
2018-10-03T19:57:14.380Z,27.40
2018-10-03T19:59:45.183Z,23.00
2018-10-03T20:02:15.028Z,25.40
2018-10-03T20:04:45.036Z,20.55
2018-10-03T20:07:14.881Z,21.25
2018-10-03T20:09:48.220Z,23.57
2018-10-03T20:12:26.012Z,24.80
2018-10-03T20:14:57.780Z,20.65
2018-10-03T20:17:28.640Z,23.27
2018-10-03T20:20:00.504Z,30.77
2018-10-03T20:22:33.256Z,21.37
2018-10-03T20:25:10.493Z,31.20
2018-10-03T20:27:43.946Z,35.45
2018-10-03T20:30:23.428Z,21.93
2018-10-03T20:32:54.244Z,24.27
2018-10-03T20:35:24.113Z,25.92
2018-10-03T20:37:54.004Z,27.82
2018-10-03T20:40:23.892Z,26.48
2018-10-03T20:42:53.680Z,22.40
2018-10-03T20:45:24.560Z,19.57
2018-10-03T20:47:58.956Z,27.67
2018-10-03T20:50:31.920Z,26.42
2018-10-03T20:53:01.772Z,26.82
2018-10-03T20:55:34.826Z,23.87
2018-10-03T20:58:06.723Z,25.45
2018-10-03T21:00:36.581Z,20.17
2018-10-03T21:03:07.417Z,18.07
2018-10-03T21:05:42.492Z,24.57
2018-10-03T21:08:13.301Z,20.80
2018-10-03T21:10:45.205Z,20.52
2018-10-03T21:13:16.001Z,19.00
2018-10-03T21:15:45.824Z,21.37
2018-10-03T21:18:18.704Z,20.88
2018-10-03T21:20:50.560Z,34.23
2018-10-03T21:23:24.572Z,53.40
2018-10-03T21:25:54.357Z,35.20
2018-10-03T21:28:29.802Z,34.88
2018-10-03T21:30:59.628Z,37.88
2018-10-03T21:33:39.082Z,24.57
2018-10-03T21:36:08.880Z,31.55
2018-10-03T21:38:42.489Z,18.50
2018-10-03T21:41:19.800Z,20.37
2018-10-03T21:43:50.665Z,22.55
2018-10-03T21:46:21.424Z,22.87
2018-10-03T21:48:57.101Z,23.57
2018-10-03T21:51:32.140Z,18.90
2018-10-03T21:54:05.268Z,17.55
2018-10-03T21:56:46.948Z,21.40
2018-10-03T21:59:37.044Z,23.50
2018-10-03T22:02:06.896Z,26.10
2018-10-03T22:04:38.764Z,24.12
2018-10-03T22:07:10.640Z,17.82
2018-10-03T22:09:41.444Z,20.10
2018-10-03T22:12:14.213Z,17.62
2018-10-03T22:14:49.791Z,19.23
2018-10-03T22:17:39.089Z,19.17
2018-10-03T22:20:11.048Z,25.00
2018-10-03T22:22:46.210Z,22.40
2018-10-03T22:25:20.165Z,26.12
2018-10-03T22:27:55.542Z,17.98
2018-10-03T22:30:31.340Z,21.80
2018-10-03T22:33:06.593Z,25.02
2018-10-03T22:35:42.896Z,22.73
2018-10-03T22:38:17.193Z,19.27
2018-10-03T22:41:17.436Z,17.52
2018-10-03T22:43:57.144Z,16.45
2018-10-03T22:46:28.984Z,20.97
2018-10-03T22:49:06.937Z,19.92
2018-10-03T22:51:42.508Z,13.00
2018-10-03T22:54:12.348Z,16.62
2018-10-03T22:56:51.768Z,12.95
2018-10-03T22:59:25.949Z,20.60
2018-10-03T23:01:55.716Z,20.65
2018-10-03T23:04:29.472Z,11.10
2018-10-03T23:06:59.344Z,11.12
2018-10-03T23:09:34.036Z,18.27
2018-10-03T23:12:05.820Z,16.87
2018-10-03T23:14:41.613Z,17.50
2018-10-03T23:17:18.356Z,15.40
2018-10-03T23:19:55.129Z,12.63
2018-10-03T23:22:27.012Z,17.60
2018-10-03T23:25:02.768Z,15.18
2018-10-03T23:27:38.268Z,18.62
2018-10-03T23:30:11.263Z,12.58
2018-10-03T23:32:51.963Z,13.88
2018-10-03T23:35:21.960Z,17.95
2018-10-03T23:37:52.780Z,13.30
2018-10-03T23:40:36.164Z,12.98
2018-10-03T23:43:06.959Z,15.13
2018-10-03T23:45:36.828Z,16.75
2018-10-03T23:48:10.612Z,12.43
2018-10-03T23:50:40.719Z,12.85
2018-10-03T23:53:16.031Z,12.65
2018-10-03T23:55:48.864Z,10.82
2018-10-03T23:58:23.012Z,16.67
